Time;durP1;ratioP1;P1;durP2;ratioP2;P2;SDS_P1;SDS_P2;PMS_P1;PMS_P2;Temp;Humidity;BMP_temperature;BMP_pressure;BME280_temperature;BME280_humidity;BME280_pressure;Samples;Min_cycle;Max_cycle;Signal;HPM_P1;HPM_P2
2023/04/18 00:00:25;;;;;;;6.55;4.13;;;12.40;72.90;;;;;;5024527;28;20048;-83
2023/04/18 00:02:52;;;;;;;6.88;4.00;;;12.40;72.80;;;;;;5024953;28;20029;-85
2023/04/18 00:05:19;;;;;;;6.28;4.07;;;12.40;72.90;;;;;;5042136;28;20477;-83
2023/04/18 00:07:45;;;;;;;6.07;3.90;;;12.40;72.80;;;;;;5024794;28;20048;-83
2023/04/18 00:10:10;;;;;;;6.57;4.20;;;12.40;72.90;;;;;;5022902;28;20036;-83
2023/04/18 00:12:36;;;;;;;6.43;4.13;;;12.40;73.00;;;;;;5023059;28;20022;-82
2023/04/18 00:15:07;;;;;;;6.68;4.30;;;12.40;73.00;;;;;;5022397;28;20045;-84
2023/04/18 00:17:34;;;;;;;6.22;4.10;;;12.40;73.00;;;;;;5021815;28;20105;-83
2023/04/18 00:20:01;;;;;;;6.75;3.67;;;12.40;73.00;;;;;;5022175;28;20025;-81
2023/04/18 00:22:27;;;;;;;7.07;3.80;;;12.40;73.00;;;;;;5021833;28;20032;-85
2023/04/18 00:24:52;;;;;;;7.05;4.22;;;12.40;73.00;;;;;;5038985;28;20025;-84
2023/04/18 00:27:19;;;;;;;6.25;4.03;;;12.40;73.10;;;;;;5018137;28;20030;-83
2023/04/18 00:29:44;;;;;;;6.40;4.25;;;12.40;73.00;;;;;;5017490;28;20029;-83
2023/04/18 00:32:10;;;;;;;6.25;4.13;;;12.40;73.10;;;;;;5016616;28;20024;-83
2023/04/18 00:34:35;;;;;;;6.03;3.80;;;12.40;73.00;;;;;;5017373;28;20038;-83
2023/04/18 00:37:01;;;;;;;6.90;4.00;;;12.40;73.10;;;;;;5017246;28;20037;-83
2023/04/18 00:39:26;;;;;;;6.70;3.78;;;12.40;73.10;;;;;;5016789;28;20237;-82
2023/04/18 00:41:52;;;;;;;6.35;3.78;;;12.40;73.10;;;;;;5034847;28;20437;-83
2023/04/18 00:44:17;;;;;;;6.53;4.20;;;12.40;73.10;;;;;;5035118;28;20075;-83
2023/04/18 00:46:43;;;;;;;6.78;3.88;;;12.40;73.10;;;;;;5017138;28;20660;-83
2023/04/18 00:49:09;;;;;;;6.25;3.83;;;12.40;73.10;;;;;;5034237;28;20117;-83
2023/04/18 00:51:34;;;;;;;6.75;4.15;;;12.40;73.10;;;;;;5037272;28;20080;-82
2023/04/18 00:54:05;;;;;;;6.15;4.03;;;12.40;73.20;;;;;;5018913;28;20402;-83
2023/04/18 00:56:30;;;;;;;6.25;3.90;;;12.40;73.20;;;;;;5016663;28;20025;-83
2023/04/18 00:58:56;;;;;;;7.00;4.00;;;12.40;73.20;;;;;;5016743;28;20033;-83
2023/04/18 01:01:22;;;;;;;6.30;3.97;;;12.40;73.20;;;;;;5016491;28;20076;-82
2023/04/18 01:03:47;;;;;;;6.43;3.80;;;12.40;73.20;;;;;;5033861;28;20433;-81
2023/04/18 01:06:13;;;;;;;5.97;3.70;;;12.40;73.20;;;;;;5017098;28;20036;-83
2023/04/18 01:08:40;;;;;;;6.25;3.95;;;12.40;73.20;;;;;;5034387;28;20116;-84
2023/04/18 01:11:06;;;;;;;6.35;3.95;;;12.40;73.30;;;;;;5016155;28;20034;-82
2023/04/18 01:13:31;;;;;;;6.00;4.03;;;12.40;73.30;;;;;;5015964;28;20087;-82
2023/04/18 01:15:57;;;;;;;6.30;4.10;;;12.40;73.30;;;;;;5033919;28;20033;-82
2023/04/18 01:18:24;;;;;;;6.53;4.20;;;12.40;73.30;;;;;;5016476;28;20018;-83
2023/04/18 01:20:51;;;;;;;6.30;3.90;;;12.40;73.40;;;;;;5017997;28;20486;-82
2023/04/18 01:23:17;;;;;;;6.35;3.90;;;12.40;73.30;;;;;;5017688;28;20021;-83
2023/04/18 01:25:44;;;;;;;6.40;3.60;;;12.40;73.40;;;;;;5035306;28;20032;-83
2023/04/18 01:28:12;;;;;;;6.55;4.13;;;12.40;73.30;;;;;;5017003;28;20474;-83
2023/04/18 01:30:38;;;;;;;6.55;4.07;;;12.40;73.50;;;;;;5033282;28;20033;-82
2023/04/18 01:33:04;;;;;;;6.32;4.10;;;12.40;73.30;;;;;;5016472;28;20044;-83
2023/04/18 01:35:31;;;;;;;5.80;3.80;;;12.40;73.30;;;;;;5017339;28;20024;-83
2023/04/18 01:37:56;;;;;;;6.53;3.85;;;12.30;73.30;;;;;;5016196;28;20025;-82
2023/04/18 01:40:23;;;;;;;6.05;3.97;;;12.40;73.30;;;;;;5016369;28;20416;-82
2023/04/18 01:42:48;;;;;;;7.05;4.22;;;12.40;73.40;;;;;;5016558;28;20033;-82
2023/04/18 01:45:15;;;;;;;5.80;3.80;;;12.40;73.40;;;;;;5033195;28;20099;-82
2023/04/18 01:47:41;;;;;;;6.47;4.03;;;12.40;73.40;;;;;;5033592;28;20067;-83
2023/04/18 01:50:07;;;;;;;6.00;3.50;;;12.40;73.40;;;;;;5015643;28;20025;-82
2023/04/18 01:52:33;;;;;;;5.65;3.85;;;12.40;73.40;;;;;;5015505;28;20029;-82
2023/04/18 01:55:00;;;;;;;6.15;3.90;;;12.40;73.40;;;;;;5033682;28;20013;-83
2023/04/18 01:57:26;;;;;;;6.35;3.85;;;12.40;73.40;;;;;;5016366;28;20025;-84
2023/04/18 01:59:52;;;;;;;5.93;3.75;;;12.40;73.50;;;;;;5015955;28;20494;-82
2023/04/18 02:02:17;;;;;;;5.78;3.65;;;12.40;73.40;;;;;;5016017;28;20026;-83
2023/04/18 02:04:42;;;;;;;6.30;3.63;;;12.40;73.40;;;;;;5033418;28;20434;-82
2023/04/18 02:07:08;;;;;;;6.15;3.97;;;12.40;73.50;;;;;;5015524;28;20025;-82
2023/04/18 02:09:33;;;;;;;6.30;3.92;;;12.40;73.50;;;;;;5015296;28;20424;-81
2023/04/18 02:12:01;;;;;;;6.72;4.10;;;12.40;73.50;;;;;;5032601;28;20025;-82
2023/04/18 02:14:29;;;;;;;6.40;3.83;;;12.30;73.40;;;;;;5015015;28;20022;-82
2023/04/18 02:16:55;;;;;;;5.60;3.67;;;12.40;73.50;;;;;;5014691;28;20032;-84
2023/04/18 02:19:21;;;;;;;5.72;3.65;;;12.40;73.40;;;;;;5016398;28;20080;-85
2023/04/18 02:21:46;;;;;;;5.63;3.60;;;12.40;73.50;;;;;;5043001;28;20056;-85
2023/04/18 02:24:12;;;;;;;6.78;4.00;;;12.40;73.50;;;;;;5042514;28;20037;-85
2023/04/18 02:26:37;;;;;;;5.72;4.03;;;12.40;73.50;;;;;;5022663;28;20037;-83
2023/04/18 02:29:03;;;;;;;6.35;4.00;;;12.30;73.50;;;;;;5024928;28;20116;-84
2023/04/18 02:31:28;;;;;;;5.70;3.72;;;12.30;73.50;;;;;;5023456;28;20029;-84
2023/04/18 02:33:54;;;;;;;6.15;3.80;;;12.30;73.40;;;;;;5042240;28;20093;-83
2023/04/18 02:36:19;;;;;;;6.72;4.20;;;12.40;73.50;;;;;;5043923;28;20684;-83
2023/04/18 02:38:45;;;;;;;5.82;3.65;;;12.40;73.50;;;;;;5024520;28;20026;-83
2023/04/18 02:41:16;;;;;;;6.28;4.00;;;12.40;73.50;;;;;;5025098;28;20132;-82
2023/04/18 02:43:41;;;;;;;6.72;3.90;;;12.30;73.50;;;;;;5023808;28;20112;-82
2023/04/18 02:46:07;;;;;;;6.32;3.80;;;12.40;73.60;;;;;;5014536;28;20061;-82
2023/04/18 02:48:32;;;;;;;5.82;3.67;;;12.30;73.50;;;;;;5014853;28;20075;-84
2023/04/18 02:51:03;;;;;;;6.68;4.22;;;12.30;73.50;;;;;;5027620;28;20052;-81
2023/04/18 02:53:28;;;;;;;6.00;3.85;;;12.30;73.50;;;;;;5044397;28;20028;-82
2023/04/18 02:55:53;;;;;;;7.35;4.40;;;12.30;73.50;;;;;;5025734;28;20053;-83
2023/04/18 02:58:19;;;;;;;6.47;4.10;;;12.30;73.50;;;;;;5022382;28;20551;-83
2023/04/18 03:00:45;;;;;;;6.20;4.15;;;12.30;73.50;;;;;;5004255;28;20029;-82
2023/04/18 03:03:11;;;;;;;6.47;4.30;;;12.40;73.50;;;;;;5003790;28;20546;-83
2023/04/18 03:05:38;;;;;;;6.72;3.90;;;12.30;73.60;;;;;;5020887;28;20026;-82
2023/04/18 03:08:04;;;;;;;6.93;4.13;;;12.30;73.50;;;;;;5003270;28;20030;-82
2023/04/18 03:10:30;;;;;;;6.80;4.15;;;12.30;73.50;;;;;;5021650;28;20479;-83
2023/04/18 03:12:55;;;;;;;6.90;4.40;;;12.30;73.50;;;;;;5003170;28;20390;-83
2023/04/18 03:15:21;;;;;;;6.55;4.03;;;12.30;73.50;;;;;;5006356;28;20030;-83
2023/04/18 03:17:46;;;;;;;6.55;3.97;;;12.30;73.60;;;;;;5024201;28;20022;-83
2023/04/18 03:20:12;;;;;;;6.80;4.38;;;12.30;73.50;;;;;;5024304;28;20053;-83
2023/04/18 03:22:37;;;;;;;6.95;4.60;;;12.30;73.60;;;;;;5006568;28;20022;-84
2023/04/18 03:25:03;;;;;;;6.78;4.10;;;12.40;73.60;;;;;;5006048;28;20037;-83
2023/04/18 03:27:29;;;;;;;6.25;4.18;;;12.40;73.60;;;;;;5004640;28;20030;-83
2023/04/18 03:29:55;;;;;;;6.72;4.05;;;12.40;73.60;;;;;;4998415;28;20025;-81
2023/04/18 03:32:21;;;;;;;6.32;3.95;;;12.40;73.60;;;;;;5018599;28;20133;-80
2023/04/18 03:34:46;;;;;;;5.95;3.60;;;12.30;73.60;;;;;;5007752;28;20053;-79
2023/04/18 03:37:12;;;;;;;6.00;3.90;;;12.30;73.50;;;;;;5017648;28;20029;-79
2023/04/18 03:39:37;;;;;;;6.50;4.70;;;12.30;73.50;;;;;;5034427;28;20044;-80
2023/04/18 03:42:03;;;;;;;6.75;4.30;;;12.30;73.50;;;;;;5016723;28;20120;-81
2023/04/18 03:44:28;;;;;;;7.30;4.03;;;12.30;73.50;;;;;;5017321;28;20025;-79
2023/04/18 03:46:54;;;;;;;6.25;4.20;;;12.30;73.50;;;;;;5037832;28;20060;-82
2023/04/18 03:49:20;;;;;;;6.53;4.35;;;12.30;73.60;;;;;;5038208;28;20053;-82
2023/04/18 03:51:46;;;;;;;7.10;4.30;;;12.30;73.50;;;;;;5015873;28;20060;-81
2023/04/18 03:54:13;;;;;;;7.05;4.97;;;12.30;73.50;;;;;;5016608;28;20025;-82
2023/04/18 03:56:39;;;;;;;6.90;4.53;;;12.30;73.50;;;;;;5018499;28;20056;-81
2023/04/18 03:59:04;;;;;;;7.28;4.53;;;12.30;73.50;;;;;;5018595;28;20165;-82
2023/04/18 04:01:30;;;;;;;7.43;4.55;;;12.30;73.50;;;;;;5015004;28;20025;-79
2023/04/18 04:03:55;;;;;;;6.43;4.20;;;12.30;73.60;;;;;;5016312;28;20379;-84
2023/04/18 04:06:21;;;;;;;6.85;4.40;;;12.30;73.50;;;;;;5016593;28;20505;-79
2023/04/18 04:08:47;;;;;;;7.30;4.65;;;12.30;73.50;;;;;;5015708;28;20029;-82
2023/04/18 04:11:12;;;;;;;7.18;4.63;;;12.20;73.50;;;;;;5014939;28;20029;-81
2023/04/18 04:13:38;;;;;;;7.90;4.60;;;12.30;73.50;;;;;;5019317;28;20029;-83
2023/04/18 04:16:04;;;;;;;7.50;3.95;;;12.30;73.50;;;;;;5004350;28;20040;-80
2023/04/18 04:18:30;;;;;;;6.75;4.57;;;12.30;73.50;;;;;;5009259;28;20025;-82
2023/04/18 04:20:59;;;;;;;7.70;4.30;;;12.30;73.50;;;;;;5015469;28;20028;-81
2023/04/18 04:23:25;;;;;;;7.65;4.68;;;12.30;73.50;;;;;;5015674;28;20035;-80
2023/04/18 04:25:51;;;;;;;8.15;4.60;;;12.30;73.50;;;;;;5015714;28;20036;-83
2023/04/18 04:28:25;;;;;;;7.90;4.40;;;12.30;73.50;;;;;;5015852;28;20477;-81
2023/04/18 04:30:51;;;;;;;8.30;4.80;;;12.30;73.50;;;;;;5015099;28;20049;-80
2023/04/18 04:33:18;;;;;;;6.80;4.60;;;12.30;73.50;;;;;;5033139;28;20033;-83
2023/04/18 04:35:45;;;;;;;7.43;4.30;;;12.30;73.40;;;;;;5015551;28;20017;-82
2023/04/18 04:38:11;;;;;;;8.57;4.70;;;12.30;73.50;;;;;;5033561;28;20029;-81
2023/04/18 04:40:37;;;;;;;7.93;4.35;;;12.30;73.50;;;;;;5015290;28;20037;-81
2023/04/18 04:43:02;;;;;;;8.10;4.85;;;12.30;73.50;;;;;;5016187;28;20520;-82
2023/04/18 04:45:28;;;;;;;7.30;4.30;;;12.30;73.50;;;;;;5017607;28;20034;-82
2023/04/18 04:47:53;;;;;;;6.78;4.55;;;12.30;73.50;;;;;;5038563;28;20029;-85
2023/04/18 04:50:19;;;;;;;8.32;5.53;;;12.30;73.50;;;;;;5033838;28;20029;-83
2023/04/18 04:52:44;;;;;;;7.18;4.88;;;12.30;73.60;;;;;;5039485;28;20025;-84
2023/04/18 04:55:10;;;;;;;7.55;4.78;;;12.30;73.60;;;;;;5039248;28;20032;-81
2023/04/18 04:57:36;;;;;;;8.05;5.13;;;12.30;73.60;;;;;;5041152;28;20028;-82
2023/04/18 05:00:04;;;;;;;8.20;5.38;;;12.30;73.60;;;;;;5059350;28;20548;-82
2023/04/18 05:02:30;;;;;;;7.70;5.00;;;12.30;73.60;;;;;;5022154;28;20599;-84
2023/04/18 05:04:55;;;;;;;8.02;5.32;;;12.30;73.70;;;;;;5030961;28;20033;-82
2023/04/18 05:07:21;;;;;;;7.90;5.07;;;12.30;73.70;;;;;;5038904;28;20036;-82
2023/04/18 05:09:46;;;;;;;8.35;5.47;;;12.30;73.70;;;;;;5039367;28;20060;-82
2023/04/18 05:12:12;;;;;;;8.20;5.65;;;12.30;73.70;;;;;;5035276;28;20021;-82
2023/04/18 05:14:37;;;;;;;8.75;5.63;;;12.30;73.90;;;;;;5023795;28;20033;-83
2023/04/18 05:17:03;;;;;;;8.52;5.75;;;12.30;73.80;;;;;;5015468;28;20025;-83
2023/04/18 05:19:28;;;;;;;8.85;6.25;;;12.30;73.90;;;;;;5034702;28;20021;-83
2023/04/18 05:21:54;;;;;;;8.27;5.55;;;12.30;74.00;;;;;;5017066;28;20099;-83
2023/04/18 05:24:20;;;;;;;8.25;5.60;;;12.30;74.10;;;;;;5015635;28;20300;-83
2023/04/18 05:26:45;;;;;;;8.32;5.47;;;12.30;74.10;;;;;;5014178;28;20053;-83
2023/04/18 05:29:11;;;;;;;8.80;5.18;;;12.30;74.10;;;;;;5013951;28;20026;-83
2023/04/18 05:31:36;;;;;;;8.93;5.57;;;12.30;74.20;;;;;;5015479;28;20029;-83
2023/04/18 05:34:02;;;;;;;10.57;5.43;;;12.30;74.30;;;;;;5015045;28;20029;-82
2023/04/18 05:36:27;;;;;;;8.95;5.78;;;12.30;74.40;;;;;;5035073;28;20072;-83
2023/04/18 05:38:53;;;;;;;8.30;5.10;;;12.30;74.40;;;;;;5015291;28;20079;-83
2023/04/18 05:41:18;;;;;;;8.57;5.47;;;12.30;74.60;;;;;;5033494;28;20038;-83
2023/04/18 05:43:44;;;;;;;7.93;5.50;;;12.30;74.60;;;;;;5015491;28;20448;-82
2023/04/18 05:46:11;;;;;;;7.90;5.35;;;12.30;74.60;;;;;;5015232;28;20505;-83
2023/04/18 05:48:36;;;;;;;8.40;5.32;;;12.30;74.60;;;;;;5017209;28;20041;-83
2023/04/18 05:51:03;;;;;;;7.70;5.32;;;12.30;74.70;;;;;;5015324;28;20017;-83
2023/04/18 05:53:30;;;;;;;8.10;5.30;;;12.30;74.70;;;;;;4998999;28;20046;-83
2023/04/18 05:55:57;;;;;;;8.55;5.57;;;12.30;74.70;;;;;;5015163;28;20048;-83
2023/04/18 05:58:23;;;;;;;7.97;5.40;;;12.40;74.80;;;;;;5015648;28;20401;-82
2023/04/18 06:00:48;;;;;;;9.05;5.10;;;12.30;74.80;;;;;;5014863;28;20033;-83
2023/04/18 06:03:14;;;;;;;8.50;5.28;;;12.30;74.80;;;;;;5015048;28;20116;-83
2023/04/18 06:05:40;;;;;;;7.65;5.20;;;12.30;74.90;;;;;;5025900;28;20032;-84
2023/04/18 06:08:06;;;;;;;7.88;5.35;;;12.30;74.90;;;;;;5031130;28;20029;-83
2023/04/18 06:10:32;;;;;;;9.05;5.45;;;12.30;74.90;;;;;;5030484;28;20034;-84
2023/04/18 06:12:57;;;;;;;7.75;5.20;;;12.40;75.00;;;;;;5030735;28;20036;-83
2023/04/18 06:15:23;;;;;;;7.40;4.93;;;12.30;75.00;;;;;;5030321;28;20021;-83
2023/04/18 06:17:49;;;;;;;8.27;4.57;;;12.30;75.00;;;;;;5029421;28;20056;-83
2023/04/18 06:20:15;;;;;;;9.15;5.57;;;12.30;75.10;;;;;;5029599;28;20021;-84
2023/04/18 06:22:40;;;;;;;7.00;4.65;;;12.30;75.10;;;;;;5024907;28;20442;-83
2023/04/18 06:25:08;;;;;;;7.35;4.78;;;12.30;75.10;;;;;;5014138;28;20083;-83
2023/04/18 06:27:34;;;;;;;8.38;5.05;;;12.30;75.20;;;;;;5027914;28;20026;-83
2023/04/18 06:30:00;;;;;;;7.63;4.97;;;12.30;75.20;;;;;;5027480;28;20045;-82
2023/04/18 06:32:25;;;;;;;8.38;5.15;;;12.30;75.20;;;;;;5026966;28;20394;-83
2023/04/18 06:34:51;;;;;;;7.13;4.75;;;12.30;75.80;;;;;;5027065;28;20044;-83
2023/04/18 06:37:17;;;;;;;7.82;5.15;;;12.30;75.20;;;;;;5044594;28;20516;-83
2023/04/18 06:39:42;;;;;;;7.68;5.10;;;12.30;75.30;;;;;;5044453;28;20057;-83
2023/04/18 06:42:08;;;;;;;7.53;5.05;;;12.30;75.30;;;;;;5025315;28;20029;-83
2023/04/18 06:44:35;;;;;;;7.90;4.80;;;12.30;75.30;;;;;;5024292;28;20029;-83
2023/04/18 06:47:00;;;;;;;8.27;5.13;;;12.30;75.40;;;;;;5022196;28;20097;-82
2023/04/18 06:49:26;;;;;;;7.55;4.97;;;12.30;75.40;;;;;;5022605;28;20061;-83
2023/04/18 06:51:51;;;;;;;7.93;5.10;;;12.30;75.40;;;;;;5016530;28;20021;-83
2023/04/18 06:54:17;;;;;;;8.63;5.38;;;12.30;75.40;;;;;;5019858;28;20494;-84
2023/04/18 06:56:42;;;;;;;7.88;5.35;;;12.30;75.40;;;;;;5021217;28;20028;-83
2023/04/18 06:59:08;;;;;;;8.65;5.43;;;12.30;75.40;;;;;;5022366;28;20112;-83
2023/04/18 07:01:40;;;;;;;6.93;4.97;;;12.40;75.50;;;;;;5028219;28;20021;-84
2023/04/18 07:04:05;;;;;;;;;;;12.30;75.50;;;;;;5046867;28;20049;-84
2023/04/18 07:06:31;;;;;;;7.97;5.13;;;12.30;75.60;;;;;;5029405;28;19909;-84
2023/04/18 07:08:59;;;;;;;8.13;5.13;;;12.30;75.60;;;;;;5029552;28;20040;-83
2023/04/18 07:11:25;;;;;;;8.38;5.15;;;12.30;75.60;;;;;;5029400;28;20093;-84
2023/04/18 07:13:50;;;;;;;7.20;5.20;;;12.30;75.60;;;;;;5046901;28;20021;-83
2023/04/18 07:16:16;;;;;;;8.65;5.22;;;12.30;75.60;;;;;;5028458;28;20419;-83
2023/04/18 07:18:41;;;;;;;8.30;4.90;;;12.30;75.70;;;;;;5027914;28;20025;-83
2023/04/18 07:21:07;;;;;;;8.30;5.00;;;12.30;75.70;;;;;;5045585;28;20030;-83
2023/04/18 07:23:32;;;;;;;7.80;5.15;;;12.30;75.70;;;;;;5027115;28;20438;-83
2023/04/18 07:26:00;;;;;;;7.93;5.30;;;12.30;75.80;;;;;;5026243;28;20493;-85
2023/04/18 07:28:25;;;;;;;8.30;5.55;;;12.30;75.80;;;;;;5022357;28;20028;-82
2023/04/18 07:30:51;;;;;;;8.05;5.35;;;12.30;75.80;;;;;;5014179;28;20030;-83
2023/04/18 07:33:16;;;;;;;7.70;5.18;;;12.30;75.80;;;;;;5025251;28;20030;-83
2023/04/18 07:35:44;;;;;;;8.25;5.20;;;12.30;75.80;;;;;;5026198;28;20030;-83
2023/04/18 07:38:11;;;;;;;7.20;5.10;;;12.40;75.90;;;;;;5027980;28;20508;-83
2023/04/18 07:40:36;;;;;;;7.75;5.03;;;12.30;75.90;;;;;;5027244;28;20332;-83
2023/04/18 07:43:02;;;;;;;8.00;5.43;;;12.30;75.90;;;;;;5026995;28;20089;-83
2023/04/18 07:45:27;;;;;;;8.70;5.53;;;12.30;75.90;;;;;;5026373;28;20025;-83
2023/04/18 07:47:53;;;;;;;7.93;5.32;;;12.30;75.90;;;;;;5044061;28;20029;-84
2023/04/18 07:50:18;;;;;;;7.90;5.35;;;12.30;75.90;;;;;;5036531;28;20032;-82
2023/04/18 07:52:46;;;;;;;7.95;5.40;;;12.30;75.90;;;;;;5021662;28;20390;-83
2023/04/18 07:55:13;;;;;;;7.43;5.20;;;12.30;75.90;;;;;;5024500;28;20490;-83
2023/04/18 07:57:41;;;;;;;7.57;4.95;;;12.30;76.00;;;;;;5043557;28;20026;-83
2023/04/18 08:00:08;;;;;;;8.20;5.35;;;12.30;76.00;;;;;;5043007;28;20021;-83
2023/04/18 08:02:33;;;;;;;8.35;5.30;;;12.40;76.00;;;;;;5024856;28;20474;-82
2023/04/18 08:04:59;;;;;;;7.55;5.10;;;12.30;76.00;;;;;;5023468;28;20024;-82
2023/04/18 08:07:24;;;;;;;8.48;5.20;;;12.40;76.00;;;;;;5041772;28;20440;-83
2023/04/18 08:09:50;;;;;;;7.82;5.30;;;12.40;76.10;;;;;;5040970;28;20175;-82
2023/04/18 08:12:15;;;;;;;7.78;4.93;;;12.40;76.10;;;;;;5021772;28;20085;-82
2023/04/18 08:14:41;;;;;;;7.55;5.25;;;12.30;76.00;;;;;;5022636;28;20156;-82
2023/04/18 08:17:06;;;;;;;7.65;5.15;;;12.30;76.00;;;;;;5022476;28;20112;-84
2023/04/18 08:19:32;;;;;;;8.43;5.80;;;12.30;76.10;;;;;;5022492;28;20029;-81
2023/04/18 08:22:09;;;;;;;8.73;5.85;;;12.40;76.20;;;;;;5034024;28;20022;-83
2023/04/18 08:24:37;;;;;;;7.80;5.15;;;12.30;76.10;;;;;;5038933;28;20440;-83
2023/04/18 08:27:02;;;;;;;8.02;5.32;;;12.40;76.20;;;;;;5020204;28;20032;-83
2023/04/18 08:29:28;;;;;;;8.27;5.70;;;12.40;76.20;;;;;;5016391;28;20116;-82
2023/04/18 08:31:53;;;;;;;8.02;5.40;;;12.40;76.20;;;;;;5020741;28;20028;-83
2023/04/18 08:34:19;;;;;;;8.80;5.95;;;12.40;76.10;;;;;;5018159;28;20029;-83
2023/04/18 08:36:44;;;;;;;8.27;5.55;;;12.40;76.10;;;;;;5017456;28;20087;-83
2023/04/18 08:39:10;;;;;;;7.60;5.20;;;12.40;76.10;;;;;;5019979;28;20025;-83
2023/04/18 08:41:39;;;;;;;8.35;5.70;;;12.40;76.10;;;;;;5018996;28;20026;-83
2023/04/18 08:44:05;;;;;;;8.25;5.60;;;12.40;76.10;;;;;;5018891;28;20022;-84
2023/04/18 08:46:35;;;;;;;8.20;5.43;;;12.50;76.00;;;;;;5015558;28;20033;-83
2023/04/18 08:49:05;;;;;;;8.30;5.72;;;12.50;76.10;;;;;;5036747;28;20032;-83
2023/04/18 08:51:32;;;;;;;7.55;5.22;;;12.50;76.00;;;;;;5018710;28;20021;-83
2023/04/18 08:54:03;;;;;;;9.00;5.63;;;12.50;76.00;;;;;;5019373;28;20024;-84
2023/04/18 08:56:29;;;;;;;9.05;6.05;;;12.50;76.00;;;;;;5018904;28;20021;-83
2023/04/18 08:58:58;;;;;;;7.78;5.47;;;12.50;76.00;;;;;;5016702;28;20025;-82
2023/04/18 09:01:55;;;;;;;8.52;5.32;;;12.50;75.90;;;;;;5016212;28;20426;-83
2023/04/18 09:04:42;;;;;;;8.45;5.45;;;12.50;75.90;;;;;;5016344;28;20056;-82
2023/04/18 09:07:19;;;;;;;7.47;5.22;;;12.50;76.50;;;;;;5015752;28;20025;-82
2023/04/18 09:09:47;;;;;;;8.27;5.88;;;12.50;75.90;;;;;;5017358;28;20034;-82
2023/04/18 09:12:21;;;;;;;8.02;5.60;;;12.60;75.90;;;;;;5016790;28;20021;-83
2023/04/18 09:14:49;;;;;;;8.18;5.50;;;12.60;75.90;;;;;;5033252;28;20474;-83
2023/04/18 09:17:31;;;;;;;8.20;5.50;;;12.60;75.80;;;;;;5015416;28;20022;-83
2023/04/18 09:19:57;;;;;;;8.77;5.70;;;12.60;75.90;;;;;;5015783;28;20359;-82
2023/04/18 09:22:23;;;;;;;8.02;5.50;;;12.60;76.40;;;;;;5033208;28;20026;-83
2023/04/18 09:24:52;;;;;;;7.53;5.30;;;12.60;75.90;;;;;;5032888;28;20044;-82
2023/04/18 09:27:21;;;;;;;8.43;5.60;;;12.60;75.90;;;;;;5015417;28;20021;-83
2023/04/18 09:29:50;;;;;;;7.75;5.10;;;12.60;76.00;;;;;;5015848;28;20116;-82
2023/04/18 09:32:28;;;;;;;8.10;5.65;;;12.60;76.00;;;;;;5015970;28;20032;-83
2023/04/18 09:35:00;;;;;;;8.15;5.60;;;12.60;76.00;;;;;;5033988;28;20557;-82
2023/04/18 09:37:26;;;;;;;7.75;5.20;;;12.50;76.00;;;;;;5033972;28;20101;-83
2023/04/18 09:39:52;;;;;;;8.40;5.65;;;12.60;76.00;;;;;;5015562;28;20056;-84
2023/04/18 09:42:18;;;;;;;8.27;5.55;;;12.60;76.10;;;;;;5015203;28;20021;-81
2023/04/18 09:45:00;;;;;;;8.52;5.53;;;12.50;76.00;;;;;;5032604;28;20229;-83
2023/04/18 09:47:27;;;;;;;9.00;5.80;;;12.60;76.00;;;;;;5015225;28;20036;-83
2023/04/18 09:49:53;;;;;;;8.15;5.45;;;12.60;76.00;;;;;;5014734;28;20022;-83
2023/04/18 09:52:18;;;;;;;8.07;5.72;;;12.70;75.90;;;;;;5014812;28;20107;-83
2023/04/18 09:54:46;;;;;;;7.65;5.32;;;12.70;75.70;;;;;;5014944;28;20079;-83
2023/04/18 09:57:13;;;;;;;7.55;5.40;;;12.70;75.60;;;;;;5024928;28;20040;-84
2023/04/18 09:59:50;;;;;;;7.70;5.30;;;12.80;75.60;;;;;;5027637;28;20028;-84
2023/04/18 10:02:20;;;;;;;8.82;5.82;;;12.80;75.70;;;;;;5044507;28;20022;-84
2023/04/18 10:04:48;;;;;;;7.70;5.50;;;12.80;75.60;;;;;;5025947;28;20031;-84
2023/04/18 10:07:16;;;;;;;7.65;5.45;;;12.80;75.70;;;;;;5044513;28;20212;-83
2023/04/18 10:09:45;;;;;;;7.57;5.18;;;12.80;75.70;;;;;;5027134;28;20037;-83
2023/04/18 10:12:11;;;;;;;7.82;5.35;;;12.80;75.60;;;;;;5025015;28;20173;-83
2023/04/18 10:14:41;;;;;;;7.80;5.25;;;12.90;75.60;;;;;;5024877;28;20027;-83
2023/04/18 10:17:07;;;;;;;7.40;4.85;;;12.90;75.50;;;;;;5023563;28;20029;-83
2023/04/18 10:19:32;;;;;;;8.95;5.28;;;12.90;75.40;;;;;;5024407;28;20022;-83
2023/04/18 10:22:00;;;;;;;7.47;5.10;;;12.90;75.50;;;;;;5024370;28;20486;-83
2023/04/18 10:24:44;;;;;;;7.78;5.40;;;12.90;75.50;;;;;;5023587;28;20509;-83
2023/04/18 10:27:10;;;;;;;8.63;5.68;;;12.90;75.60;;;;;;5022987;28;20482;-82
2023/04/18 10:29:49;;;;;;;7.85;5.40;;;12.90;75.70;;;;;;5022694;28;20030;-83
2023/04/18 10:32:21;;;;;;;8.15;5.53;;;12.90;75.70;;;;;;5022515;28;20018;-84
2023/04/18 10:34:48;;;;;;;8.98;6.18;;;12.90;75.70;;;;;;5039058;28;20108;-83
2023/04/18 10:37:14;;;;;;;7.78;5.00;;;12.90;75.70;;;;;;5031903;28;20031;-83
2023/04/18 10:40:05;;;;;;;8.18;5.60;;;12.80;75.70;;;;;;5021070;28;20021;-84
2023/04/18 10:42:46;;;;;;;8.18;6.05;;;12.80;75.70;;;;;;5022154;28;20516;-83
2023/04/18 10:45:19;;;;;;;7.93;5.40;;;12.80;75.80;;;;;;5021508;28;20065;-83
2023/04/18 10:47:45;;;;;;;7.65;5.45;;;12.80;75.80;;;;;;5039713;28;20057;-82
2023/04/18 10:50:10;;;;;;;8.55;5.97;;;12.80;75.90;;;;;;5020668;28;20029;-83
2023/04/18 10:52:36;;;;;;;7.72;5.25;;;12.80;75.90;;;;;;5041532;28;20081;-84
2023/04/18 10:55:16;;;;;;;8.23;6.20;;;12.80;75.90;;;;;;5027219;28;20049;-84
2023/04/18 10:57:44;;;;;;;7.43;5.15;;;12.80;75.90;;;;;;5026378;28;20032;-84
2023/04/18 11:00:12;;;;;;;7.95;5.05;;;12.80;75.80;;;;;;5025734;28;20473;-83
2023/04/18 11:02:39;;;;;;;7.60;5.45;;;12.90;75.80;;;;;;5025676;28;20036;-84
2023/04/18 11:05:06;;;;;;;7.82;5.65;;;12.90;75.70;;;;;;5025155;28;20095;-83
2023/04/18 11:07:38;;;;;;;7.82;5.07;;;12.90;75.70;;;;;;5042518;28;20036;-83
2023/04/18 11:10:06;;;;;;;8.75;5.63;;;12.90;75.70;;;;;;5025267;28;20059;-81
2023/04/18 11:12:34;;;;;;;7.88;5.53;;;12.90;75.70;;;;;;5028920;28;20028;-84
2023/04/18 11:15:01;;;;;;;7.78;5.53;;;12.90;75.70;;;;;;5028573;28;20047;-84
2023/04/18 11:17:31;;;;;;;8.38;6.05;;;12.90;75.70;;;;;;5027077;28;20026;-84
2023/04/18 11:20:13;;;;;;;8.38;5.82;;;12.90;75.80;;;;;;5045801;28;20081;-83
2023/04/18 11:22:45;;;;;;;7.60;5.43;;;12.90;75.80;;;;;;5027909;28;20052;-83
2023/04/18 11:25:11;;;;;;;8.00;5.80;;;12.90;75.90;;;;;;5026777;28;20433;-83
2023/04/18 11:27:39;;;;;;;9.23;6.57;;;12.90;76.00;;;;;;5026633;28;20022;-83
2023/04/18 11:30:06;;;;;;;8.63;5.90;;;12.80;75.90;;;;;;5025330;28;20045;-82
2023/04/18 11:32:32;;;;;;;7.57;5.25;;;12.80;76.00;;;;;;5025777;28;20037;-83
2023/04/18 11:34:58;;;;;;;9.15;6.05;;;12.80;76.00;;;;;;5043430;28;20405;-82
2023/04/18 11:37:24;;;;;;;7.78;5.47;;;12.90;76.10;;;;;;5025212;28;20028;-83
2023/04/18 11:39:52;;;;;;;7.68;5.57;;;12.80;76.00;;;;;;5024658;28;20030;-83
2023/04/18 11:42:18;;;;;;;8.10;5.88;;;12.80;76.10;;;;;;5043153;28;20083;-83
2023/04/18 11:44:48;;;;;;;7.88;5.68;;;12.80;76.10;;;;;;5024526;28;20033;-83
2023/04/18 11:47:24;;;;;;;8.23;5.68;;;12.80;76.10;;;;;;5024355;28;20034;-83
2023/04/18 11:50:01;;;;;;;7.45;5.20;;;12.80;76.20;;;;;;5025736;28;20029;-83
2023/04/18 11:52:28;;;;;;;7.60;5.32;;;12.80;76.20;;;;;;5017606;28;20022;-83
2023/04/18 11:54:55;;;;;;;8.02;5.80;;;12.80;76.20;;;;;;5018282;28;20025;-84
2023/04/18 11:57:22;;;;;;;8.48;6.05;;;12.80;76.20;;;;;;5018552;28;20545;-83
2023/04/18 11:59:51;;;;;;;9.15;5.75;;;12.80;76.20;;;;;;5040741;28;20029;-82
2023/04/18 12:02:18;;;;;;;7.90;5.70;;;12.80;76.20;;;;;;5023209;28;20516;-83
2023/04/18 12:04:54;;;;;;;7.80;5.50;;;12.90;76.30;;;;;;5022188;28;20026;-83
2023/04/18 12:07:39;;;;;;;7.88;5.45;;;12.80;76.20;;;;;;5022394;28;20021;-82
2023/04/18 12:10:06;;;;;;;8.50;6.03;;;12.80;76.20;;;;;;5018866;28;20113;-83
2023/04/18 12:12:32;;;;;;;8.00;6.05;;;12.80;76.20;;;;;;5017708;28;20033;-82
2023/04/18 12:14:59;;;;;;;8.00;5.80;;;12.80;76.20;;;;;;5018756;28;20025;-83
2023/04/18 12:17:26;;;;;;;8.35;5.97;;;12.80;76.20;;;;;;5019102;28;20068;-83
2023/04/18 12:19:52;;;;;;;8.38;5.95;;;12.90;76.30;;;;;;5018847;28;20025;-84
2023/04/18 12:22:18;;;;;;;8.25;6.00;;;12.90;76.20;;;;;;5017840;28;20029;-82
2023/04/18 12:24:43;;;;;;;8.15;5.50;;;12.90;76.30;;;;;;5018687;28;20087;-77
2023/04/18 12:27:10;;;;;;;7.95;5.43;;;12.90;76.00;;;;;;5036606;28;20028;-83
2023/04/18 12:29:36;;;;;;;8.32;5.78;;;12.90;76.00;;;;;;5020351;28;20032;-84
2023/04/18 12:32:02;;;;;;;7.63;5.63;;;12.90;76.00;;;;;;5044716;28;20034;-84
2023/04/18 12:34:27;;;;;;;7.53;5.50;;;13.00;76.10;;;;;;5025967;28;20037;-84
2023/04/18 12:36:53;;;;;;;7.90;5.65;;;12.90;76.30;;;;;;5020145;28;20029;-86
2023/04/18 12:39:18;;;;;;;7.70;5.60;;;12.90;76.00;;;;;;5034589;28;20029;-80
2023/04/18 12:41:44;;;;;;;7.90;5.60;;;12.90;76.10;;;;;;5016641;28;20083;-84
2023/04/18 12:44:09;;;;;;;7.40;5.47;;;12.90;76.00;;;;;;5035583;28;20033;-86
2023/04/18 12:46:35;;;;;;;8.23;5.97;;;13.00;76.10;;;;;;5035125;28;20029;-82